sensor_id;sensor_type;location;lat;lon;timestamp;temperature;humidity
38090;DHT22;23904;52.322;10.232;2023-06-26T00:02:13;22.40;99.90
38090;DHT22;23904;52.322;10.232;2023-06-26T00:04:39;22.30;99.90
38090;DHT22;23904;52.322;10.232;2023-06-26T00:07:05;22.30;99.90
38090;DHT22;23904;52.322;10.232;2023-06-26T00:09:30;22.30;99.90
38090;DHT22;23904;52.322;10.232;2023-06-26T00:11:56;22.20;99.90
38090;DHT22;23904;52.322;10.232;2023-06-26T00:14:22;22.20;99.90
38090;DHT22;23904;52.322;10.232;2023-06-26T00:16:47;22.20;99.90
38090;DHT22;23904;52.322;10.232;2023-06-26T00:19:16;22.10;99.90
38090;DHT22;23904;52.322;10.232;2023-06-26T00:21:42;22.10;99.90
38090;DHT22;23904;52.322;10.232;2023-06-26T00:24:13;22.10;99.90
38090;DHT22;23904;52.322;10.232;2023-06-26T00:26:40;22.10;99.90
38090;DHT22;23904;52.322;10.232;2023-06-26T00:29:05;22.00;99.90
38090;DHT22;23904;52.322;10.232;2023-06-26T00:31:31;22.00;99.90
38090;DHT22;23904;52.322;10.232;2023-06-26T00:33:57;21.90;99.90
38090;DHT22;23904;52.322;10.232;2023-06-26T00:36:23;21.90;99.90
38090;DHT22;23904;52.322;10.232;2023-06-26T00:38:49;21.90;99.90
38090;DHT22;23904;52.322;10.232;2023-06-26T00:41:15;21.90;99.90
38090;DHT22;23904;52.322;10.232;2023-06-26T00:43:41;21.80;99.90
38090;DHT22;23904;52.322;10.232;2023-06-26T00:46:10;21.80;99.90
38090;DHT22;23904;52.322;10.232;2023-06-26T00:48:38;21.70;99.90
38090;DHT22;23904;52.322;10.232;2023-06-26T00:51:05;21.70;99.90
38090;DHT22;23904;52.322;10.232;2023-06-26T00:53:31;21.70;99.90
38090;DHT22;23904;52.322;10.232;2023-06-26T00:55:58;21.70;99.90
38090;DHT22;23904;52.322;10.232;2023-06-26T00:58:25;21.60;99.90
38090;DHT22;23904;52.322;10.232;2023-06-26T01:00:52;21.60;99.90
38090;DHT22;23904;52.322;10.232;2023-06-26T01:03:18;21.50;99.90
38090;DHT22;23904;52.322;10.232;2023-06-26T01:05:46;21.50;99.90
38090;DHT22;23904;52.322;10.232;2023-06-26T01:08:15;21.50;99.90
38090;DHT22;23904;52.322;10.232;2023-06-26T01:10:42;21.50;99.90
38090;DHT22;23904;52.322;10.232;2023-06-26T01:13:08;21.40;99.90
38090;DHT22;23904;52.322;10.232;2023-06-26T01:15:34;21.40;99.90
38090;DHT22;23904;52.322;10.232;2023-06-26T01:18:00;21.40;99.90
38090;DHT22;23904;52.322;10.232;2023-06-26T01:20:35;21.40;99.90
38090;DHT22;23904;52.322;10.232;2023-06-26T01:23:18;21.40;99.90
38090;DHT22;23904;52.322;10.232;2023-06-26T01:26:21;21.30;99.90
38090;DHT22;23904;52.322;10.232;2023-06-26T01:28:50;21.30;99.90
38090;DHT22;23904;52.322;10.232;2023-06-26T01:31:17;21.30;99.90
38090;DHT22;23904;52.322;10.232;2023-06-26T01:33:45;21.30;99.90
38090;DHT22;23904;52.322;10.232;2023-06-26T01:36:12;21.30;99.90
38090;DHT22;23904;52.322;10.232;2023-06-26T01:38:38;21.30;99.90
38090;DHT22;23904;52.322;10.232;2023-06-26T01:41:04;21.30;99.90
38090;DHT22;23904;52.322;10.232;2023-06-26T01:46:53;21.20;99.90
38090;DHT22;23904;52.322;10.232;2023-06-26T01:49:46;21.20;99.90
38090;DHT22;23904;52.322;10.232;2023-06-26T01:52:32;21.10;99.90
38090;DHT22;23904;52.322;10.232;2023-06-26T01:55:15;21.10;99.90
38090;DHT22;23904;52.322;10.232;2023-06-26T01:57:48;21.10;99.90
38090;DHT22;23904;52.322;10.232;2023-06-26T02:00:17;21.10;99.90
38090;DHT22;23904;52.322;10.232;2023-06-26T02:02:45;21.10;99.90
38090;DHT22;23904;52.322;10.232;2023-06-26T02:05:12;21.20;99.90
38090;DHT22;23904;52.322;10.232;2023-06-26T02:07:38;21.20;99.90
38090;DHT22;23904;52.322;10.232;2023-06-26T02:10:04;21.20;99.90
38090;DHT22;23904;52.322;10.232;2023-06-26T02:12:30;21.20;99.90
38090;DHT22;23904;52.322;10.232;2023-06-26T02:14:55;21.20;99.90
38090;DHT22;23904;52.322;10.232;2023-06-26T02:17:21;21.10;99.90
38090;DHT22;23904;52.322;10.232;2023-06-26T02:19:46;21.10;99.90
38090;DHT22;23904;52.322;10.232;2023-06-26T02:22:15;21.10;99.90
38090;DHT22;23904;52.322;10.232;2023-06-26T02:24:42;21.10;99.90
38090;DHT22;23904;52.322;10.232;2023-06-26T02:27:09;21.00;99.90
38090;DHT22;23904;52.322;10.232;2023-06-26T02:29:35;21.00;99.90
38090;DHT22;23904;52.322;10.232;2023-06-26T02:32:01;21.00;99.90
38090;DHT22;23904;52.322;10.232;2023-06-26T02:34:27;20.90;99.90
38090;DHT22;23904;52.322;10.232;2023-06-26T02:36:53;20.90;99.90
38090;DHT22;23904;52.322;10.232;2023-06-26T02:39:21;20.80;99.90
38090;DHT22;23904;52.322;10.232;2023-06-26T02:41:47;20.80;99.90
38090;DHT22;23904;52.322;10.232;2023-06-26T02:44:13;20.80;99.90
38090;DHT22;23904;52.322;10.232;2023-06-26T02:46:39;20.80;99.90
38090;DHT22;23904;52.322;10.232;2023-06-26T02:49:06;20.80;99.90
38090;DHT22;23904;52.322;10.232;2023-06-26T02:51:32;20.70;99.90
38090;DHT22;23904;52.322;10.232;2023-06-26T02:53:58;20.70;99.90
38090;DHT22;23904;52.322;10.232;2023-06-26T02:56:24;20.70;99.90
38090;DHT22;23904;52.322;10.232;2023-06-26T02:58:57;20.60;99.90
38090;DHT22;23904;52.322;10.232;2023-06-26T03:01:23;20.60;99.90
38090;DHT22;23904;52.322;10.232;2023-06-26T03:03:49;20.60;99.90
38090;DHT22;23904;52.322;10.232;2023-06-26T03:06:15;20.60;99.90
38090;DHT22;23904;52.322;10.232;2023-06-26T03:08:41;20.50;99.90
38090;DHT22;23904;52.322;10.232;2023-06-26T03:11:07;20.50;99.90
38090;DHT22;23904;52.322;10.232;2023-06-26T03:13:36;20.50;99.90
38090;DHT22;23904;52.322;10.232;2023-06-26T03:16:03;20.50;99.90
38090;DHT22;23904;52.322;10.232;2023-06-26T03:18:29;20.50;99.90
38090;DHT22;23904;52.322;10.232;2023-06-26T03:20:58;20.40;99.90
38090;DHT22;23904;52.322;10.232;2023-06-26T03:23:25;20.40;99.90
38090;DHT22;23904;52.322;10.232;2023-06-26T03:25:50;20.40;99.90
38090;DHT22;23904;52.322;10.232;2023-06-26T03:28:16;20.30;99.90
38090;DHT22;23904;52.322;10.232;2023-06-26T03:30:42;20.30;99.90
38090;DHT22;23904;52.322;10.232;2023-06-26T03:33:08;20.40;99.90
38090;DHT22;23904;52.322;10.232;2023-06-26T03:35:33;20.40;99.90
38090;DHT22;23904;52.322;10.232;2023-06-26T03:37:59;20.40;99.90
38090;DHT22;23904;52.322;10.232;2023-06-26T03:40:26;20.40;99.90
38090;DHT22;23904;52.322;10.232;2023-06-26T03:42:51;20.40;99.90
38090;DHT22;23904;52.322;10.232;2023-06-26T03:45:17;20.50;99.90
38090;DHT22;23904;52.322;10.232;2023-06-26T03:47:44;20.50;99.90
38090;DHT22;23904;52.322;10.232;2023-06-26T03:50:09;20.60;99.90
38090;DHT22;23904;52.322;10.232;2023-06-26T03:52:35;20.60;99.90
38090;DHT22;23904;52.322;10.232;2023-06-26T03:55:00;20.70;99.90
38090;DHT22;23904;52.322;10.232;2023-06-26T03:57:26;20.70;99.90
38090;DHT22;23904;52.322;10.232;2023-06-26T03:59:52;20.70;99.90
38090;DHT22;23904;52.322;10.232;2023-06-26T04:02:18;20.70;99.90
38090;DHT22;23904;52.322;10.232;2023-06-26T04:04:44;20.70;99.90
38090;DHT22;23904;52.322;10.232;2023-06-26T04:07:09;20.70;99.90
38090;DHT22;23904;52.322;10.232;2023-06-26T04:09:35;20.60;99.90
38090;DHT22;23904;52.322;10.232;2023-06-26T04:12:01;20.70;99.90
38090;DHT22;23904;52.322;10.232;2023-06-26T04:14:26;20.60;99.90
38090;DHT22;23904;52.322;10.232;2023-06-26T04:16:52;20.70;99.90
38090;DHT22;23904;52.322;10.232;2023-06-26T04:19:17;20.70;99.90
38090;DHT22;23904;52.322;10.232;2023-06-26T04:21:43;20.70;99.90
38090;DHT22;23904;52.322;10.232;2023-06-26T04:24:09;20.70;99.90
38090;DHT22;23904;52.322;10.232;2023-06-26T04:26:34;20.70;99.90
38090;DHT22;23904;52.322;10.232;2023-06-26T04:29:00;20.70;99.90
38090;DHT22;23904;52.322;10.232;2023-06-26T04:31:26;20.70;99.90
38090;DHT22;23904;52.322;10.232;2023-06-26T04:33:52;20.80;99.90
38090;DHT22;23904;52.322;10.232;2023-06-26T04:36:20;20.80;99.90
38090;DHT22;23904;52.322;10.232;2023-06-26T04:38:46;20.80;99.90
38090;DHT22;23904;52.322;10.232;2023-06-26T04:41:13;20.80;99.90
38090;DHT22;23904;52.322;10.232;2023-06-26T04:43:39;20.70;99.90
38090;DHT22;23904;52.322;10.232;2023-06-26T04:46:05;20.70;99.90
38090;DHT22;23904;52.322;10.232;2023-06-26T04:48:31;20.70;99.90
38090;DHT22;23904;52.322;10.232;2023-06-26T04:50:57;20.80;99.90
38090;DHT22;23904;52.322;10.232;2023-06-26T04:53:24;20.80;99.90
38090;DHT22;23904;52.322;10.232;2023-06-26T04:55:50;20.90;99.90
38090;DHT22;23904;52.322;10.232;2023-06-26T04:58:17;21.00;99.90
38090;DHT22;23904;52.322;10.232;2023-06-26T05:00:43;21.10;99.90
38090;DHT22;23904;52.322;10.232;2023-06-26T05:03:12;21.20;99.90
38090;DHT22;23904;52.322;10.232;2023-06-26T05:05:39;21.30;99.90
38090;DHT22;23904;52.322;10.232;2023-06-26T05:08:21;21.30;99.90
38090;DHT22;23904;52.322;10.232;2023-06-26T05:10:48;21.40;99.90
38090;DHT22;23904;52.322;10.232;2023-06-26T05:13:14;21.50;99.90
38090;DHT22;23904;52.322;10.232;2023-06-26T05:15:46;21.50;99.90
38090;DHT22;23904;52.322;10.232;2023-06-26T05:18:11;21.60;99.90
38090;DHT22;23904;52.322;10.232;2023-06-26T05:20:38;21.60;99.90
38090;DHT22;23904;52.322;10.232;2023-06-26T05:23:04;21.70;99.90
38090;DHT22;23904;52.322;10.232;2023-06-26T05:25:31;21.70;99.90
38090;DHT22;23904;52.322;10.232;2023-06-26T05:27:57;21.70;99.90
38090;DHT22;23904;52.322;10.232;2023-06-26T05:30:25;21.80;99.90
38090;DHT22;23904;52.322;10.232;2023-06-26T05:32:52;21.80;99.90
38090;DHT22;23904;52.322;10.232;2023-06-26T05:35:20;21.90;99.90
38090;DHT22;23904;52.322;10.232;2023-06-26T05:37:50;22.00;99.90
38090;DHT22;23904;52.322;10.232;2023-06-26T05:40:17;22.10;99.90
38090;DHT22;23904;52.322;10.232;2023-06-26T05:42:44;22.10;99.90
38090;DHT22;23904;52.322;10.232;2023-06-26T05:45:10;22.20;99.90
38090;DHT22;23904;52.322;10.232;2023-06-26T05:47:36;22.30;99.90
38090;DHT22;23904;52.322;10.232;2023-06-26T05:50:02;22.30;99.90
38090;DHT22;23904;52.322;10.232;2023-06-26T05:52:28;22.40;99.90
38090;DHT22;23904;52.322;10.232;2023-06-26T05:54:55;22.50;99.90
38090;DHT22;23904;52.322;10.232;2023-06-26T05:57:26;22.60;99.90
38090;DHT22;23904;52.322;10.232;2023-06-26T05:59:53;22.70;99.90
38090;DHT22;23904;52.322;10.232;2023-06-26T06:02:19;22.80;99.90
38090;DHT22;23904;52.322;10.232;2023-06-26T06:04:44;22.90;99.90
38090;DHT22;23904;52.322;10.232;2023-06-26T06:07:10;23.00;99.90
38090;DHT22;23904;52.322;10.232;2023-06-26T06:09:35;23.00;99.90
38090;DHT22;23904;52.322;10.232;2023-06-26T06:12:01;23.00;99.90
38090;DHT22;23904;52.322;10.232;2023-06-26T06:14:28;23.00;99.90
38090;DHT22;23904;52.322;10.232;2023-06-26T06:16:54;23.10;99.90
38090;DHT22;23904;52.322;10.232;2023-06-26T06:19:19;23.20;99.90
38090;DHT22;23904;52.322;10.232;2023-06-26T06:21:45;23.30;99.90
38090;DHT22;23904;52.322;10.232;2023-06-26T06:24:11;23.40;99.90
38090;DHT22;23904;52.322;10.232;2023-06-26T06:26:36;23.50;99.90
38090;DHT22;23904;52.322;10.232;2023-06-26T06:29:02;23.60;99.90
38090;DHT22;23904;52.322;10.232;2023-06-26T06:31:28;23.70;99.90
38090;DHT22;23904;52.322;10.232;2023-06-26T06:33:56;23.80;99.90
38090;DHT22;23904;52.322;10.232;2023-06-26T06:36:22;23.90;99.90
38090;DHT22;23904;52.322;10.232;2023-06-26T06:38:47;24.10;99.90
38090;DHT22;23904;52.322;10.232;2023-06-26T06:41:13;24.20;99.90
38090;DHT22;23904;52.322;10.232;2023-06-26T06:43:39;24.40;99.90
38090;DHT22;23904;52.322;10.232;2023-06-26T06:46:04;24.50;99.90
38090;DHT22;23904;52.322;10.232;2023-06-26T06:48:31;24.60;99.90
38090;DHT22;23904;52.322;10.232;2023-06-26T06:50:57;24.70;99.90
38090;DHT22;23904;52.322;10.232;2023-06-26T06:53:22;24.80;99.90
38090;DHT22;23904;52.322;10.232;2023-06-26T06:55:49;24.90;99.90
38090;DHT22;23904;52.322;10.232;2023-06-26T06:58:15;25.00;99.90
38090;DHT22;23904;52.322;10.232;2023-06-26T07:00:49;25.10;99.90
38090;DHT22;23904;52.322;10.232;2023-06-26T07:03:17;25.00;99.90
38090;DHT22;23904;52.322;10.232;2023-06-26T07:05:42;25.00;99.90
38090;DHT22;23904;52.322;10.232;2023-06-26T07:08:08;25.00;99.90
38090;DHT22;23904;52.322;10.232;2023-06-26T07:10:34;25.00;99.90
38090;DHT22;23904;52.322;10.232;2023-06-26T07:13:00;25.20;99.90
38090;DHT22;23904;52.322;10.232;2023-06-26T07:15:25;25.30;99.90
38090;DHT22;23904;52.322;10.232;2023-06-26T07:17:51;25.50;99.90
38090;DHT22;23904;52.322;10.232;2023-06-26T07:20:16;25.60;99.90
38090;DHT22;23904;52.322;10.232;2023-06-26T07:22:43;25.60;99.90
38090;DHT22;23904;52.322;10.232;2023-06-26T07:25:10;25.70;99.90
38090;DHT22;23904;52.322;10.232;2023-06-26T07:27:37;25.80;99.90
38090;DHT22;23904;52.322;10.232;2023-06-26T07:30:03;26.00;99.60
38090;DHT22;23904;52.322;10.232;2023-06-26T07:32:29;26.10;99.60
38090;DHT22;23904;52.322;10.232;2023-06-26T07:34:55;26.20;99.00
38090;DHT22;23904;52.322;10.232;2023-06-26T07:37:20;26.20;99.00
38090;DHT22;23904;52.322;10.232;2023-06-26T07:39:46;26.20;98.70
38090;DHT22;23904;52.322;10.232;2023-06-26T07:42:12;26.10;99.50
38090;DHT22;23904;52.322;10.232;2023-06-26T07:44:38;26.20;99.40
38090;DHT22;23904;52.322;10.232;2023-06-26T07:47:04;26.20;98.80
38090;DHT22;23904;52.322;10.232;2023-06-26T07:49:29;26.20;99.20
38090;DHT22;23904;52.322;10.232;2023-06-26T07:51:55;26.20;99.30
38090;DHT22;23904;52.322;10.232;2023-06-26T07:54:20;26.10;99.00
38090;DHT22;23904;52.322;10.232;2023-06-26T07:56:57;26.20;99.90
38090;DHT22;23904;52.322;10.232;2023-06-26T07:59:24;26.30;99.30
38090;DHT22;23904;52.322;10.232;2023-06-26T08:01:52;26.40;99.20
38090;DHT22;23904;52.322;10.232;2023-06-26T08:04:19;26.50;99.30
38090;DHT22;23904;52.322;10.232;2023-06-26T08:06:49;26.60;99.50
38090;DHT22;23904;52.322;10.232;2023-06-26T08:09:16;26.70;99.90
38090;DHT22;23904;52.322;10.232;2023-06-26T08:11:43;26.90;99.90
38090;DHT22;23904;52.322;10.232;2023-06-26T08:14:09;27.00;99.70
38090;DHT22;23904;52.322;10.232;2023-06-26T08:16:37;27.10;99.90
38090;DHT22;23904;52.322;10.232;2023-06-26T08:19:03;27.20;99.30
38090;DHT22;23904;52.322;10.232;2023-06-26T08:21:29;27.30;99.10
38090;DHT22;23904;52.322;10.232;2023-06-26T08:23:54;27.50;98.70
38090;DHT22;23904;52.322;10.232;2023-06-26T08:26:20;27.50;98.90
38090;DHT22;23904;52.322;10.232;2023-06-26T08:28:45;27.60;97.60
38090;DHT22;23904;52.322;10.232;2023-06-26T08:31:11;27.80;97.00
38090;DHT22;23904;52.322;10.232;2023-06-26T08:33:37;27.70;95.40
38090;DHT22;23904;52.322;10.232;2023-06-26T08:36:03;27.50;95.60
38090;DHT22;23904;52.322;10.232;2023-06-26T08:38:28;27.40;95.50
38090;DHT22;23904;52.322;10.232;2023-06-26T08:40:54;27.30;95.60
38090;DHT22;23904;52.322;10.232;2023-06-26T08:43:19;27.40;96.20
38090;DHT22;23904;52.322;10.232;2023-06-26T08:45:47;27.80;95.70
38090;DHT22;23904;52.322;10.232;2023-06-26T08:48:17;28.10;95.90
38090;DHT22;23904;52.322;10.232;2023-06-26T08:50:44;28.20;95.90
38090;DHT22;23904;52.322;10.232;2023-06-26T08:56:17;28.90;94.70
38090;DHT22;23904;52.322;10.232;2023-06-26T08:58:46;29.40;93.40
38090;DHT22;23904;52.322;10.232;2023-06-26T09:01:11;30.20;92.90
38090;DHT22;23904;52.322;10.232;2023-06-26T09:03:38;31.40;90.70
38090;DHT22;23904;52.322;10.232;2023-06-26T09:06:03;32.30;88.30
38090;DHT22;23904;52.322;10.232;2023-06-26T09:08:29;32.90;87.00
38090;DHT22;23904;52.322;10.232;2023-06-26T09:10:55;33.40;83.00
38090;DHT22;23904;52.322;10.232;2023-06-26T09:13:21;33.80;83.30
38090;DHT22;23904;52.322;10.232;2023-06-26T09:15:47;34.40;80.70
38090;DHT22;23904;52.322;10.232;2023-06-26T09:18:12;35.10;78.80
38090;DHT22;23904;52.322;10.232;2023-06-26T09:20:38;35.00;76.70
38090;DHT22;23904;52.322;10.232;2023-06-26T09:23:04;35.10;74.00
38090;DHT22;23904;52.322;10.232;2023-06-26T09:25:30;35.40;73.00
38090;DHT22;23904;52.322;10.232;2023-06-26T09:27:56;36.00;71.20
38090;DHT22;23904;52.322;10.232;2023-06-26T09:30:22;36.30;70.20
38090;DHT22;23904;52.322;10.232;2023-06-26T09:32:48;36.30;70.00
38090;DHT22;23904;52.322;10.232;2023-06-26T09:35:16;36.00;71.90
38090;DHT22;23904;52.322;10.232;2023-06-26T09:37:43;35.10;70.80
38090;DHT22;23904;52.322;10.232;2023-06-26T09:40:09;35.60;69.30
38090;DHT22;23904;52.322;10.232;2023-06-26T09:42:34;36.20;69.20
38090;DHT22;23904;52.322;10.232;2023-06-26T09:45:01;36.40;68.50
38090;DHT22;23904;52.322;10.232;2023-06-26T09:47:30;36.70;68.40
38090;DHT22;23904;52.322;10.232;2023-06-26T09:49:57;36.30;68.70
38090;DHT22;23904;52.322;10.232;2023-06-26T09:52:26;36.00;69.60
38090;DHT22;23904;52.322;10.232;2023-06-26T09:55:07;35.60;69.80
38090;DHT22;23904;52.322;10.232;2023-06-26T09:57:35;34.60;70.70
38090;DHT22;23904;52.322;10.232;2023-06-26T10:00:02;33.80;73.70
38090;DHT22;23904;52.322;10.232;2023-06-26T10:02:29;33.60;75.40
38090;DHT22;23904;52.322;10.232;2023-06-26T10:04:54;34.20;73.20
38090;DHT22;23904;52.322;10.232;2023-06-26T10:07:20;34.90;71.30
38090;DHT22;23904;52.322;10.232;2023-06-26T10:09:48;35.00;71.30
38090;DHT22;23904;52.322;10.232;2023-06-26T10:12:29;35.10;69.90
38090;DHT22;23904;52.322;10.232;2023-06-26T10:14:59;34.80;71.40
38090;DHT22;23904;52.322;10.232;2023-06-26T10:17:28;34.40;71.40
38090;DHT22;23904;52.322;10.232;2023-06-26T10:19:58;33.70;73.70
38090;DHT22;23904;52.322;10.232;2023-06-26T10:22:29;32.50;75.60
38090;DHT22;23904;52.322;10.232;2023-06-26T10:25:00;31.10;79.00
38090;DHT22;23904;52.322;10.232;2023-06-26T10:27:35;30.20;82.80
38090;DHT22;23904;52.322;10.232;2023-06-26T10:30:09;29.70;83.90
38090;DHT22;23904;52.322;10.232;2023-06-26T10:32:36;28.90;85.90
38090;DHT22;23904;52.322;10.232;2023-06-26T10:35:02;28.30;88.00
38090;DHT22;23904;52.322;10.232;2023-06-26T10:37:44;28.30;89.60
38090;DHT22;23904;52.322;10.232;2023-06-26T10:40:13;27.90;90.40
38090;DHT22;23904;52.322;10.232;2023-06-26T10:42:40;27.70;90.90
38090;DHT22;23904;52.322;10.232;2023-06-26T10:45:28;27.60;91.00
38090;DHT22;23904;52.322;10.232;2023-06-26T10:47:53;27.50;91.00
38090;DHT22;23904;52.322;10.232;2023-06-26T10:52:52;27.40;91.50
38090;DHT22;23904;52.322;10.232;2023-06-26T10:55:36;27.70;92.10
38090;DHT22;23904;52.322;10.232;2023-06-26T10:58:03;28.80;91.50
38090;DHT22;23904;52.322;10.232;2023-06-26T11:00:28;29.60;90.00
38090;DHT22;23904;52.322;10.232;2023-06-26T11:02:54;29.10;90.40
38090;DHT22;23904;52.322;10.232;2023-06-26T11:05:24;28.50;91.50
38090;DHT22;23904;52.322;10.232;2023-06-26T11:08:08;28.10;92.60
38090;DHT22;23904;52.322;10.232;2023-06-26T11:10:52;28.20;92.90
38090;DHT22;23904;52.322;10.232;2023-06-26T11:13:18;27.90;92.30
38090;DHT22;23904;52.322;10.232;2023-06-26T11:15:49;27.40;93.30
38090;DHT22;23904;52.322;10.232;2023-06-26T11:18:15;26.90;93.40
38090;DHT22;23904;52.322;10.232;2023-06-26T11:20:41;26.60;94.30
38090;DHT22;23904;52.322;10.232;2023-06-26T11:23:08;26.30;94.70
38090;DHT22;23904;52.322;10.232;2023-06-26T11:25:38;26.00;96.80
38090;DHT22;23904;52.322;10.232;2023-06-26T11:28:09;25.20;99.50
38090;DHT22;23904;52.322;10.232;2023-06-26T11:30:36;24.60;99.90
38090;DHT22;23904;52.322;10.232;2023-06-26T11:33:06;24.60;99.90
38090;DHT22;23904;52.322;10.232;2023-06-26T11:35:32;24.60;99.90
38090;DHT22;23904;52.322;10.232;2023-06-26T11:38:03;24.70;99.90
38090;DHT22;23904;52.322;10.232;2023-06-26T11:40:33;24.80;99.90
38090;DHT22;23904;52.322;10.232;2023-06-26T11:43:03;25.00;99.90
38090;DHT22;23904;52.322;10.232;2023-06-26T11:45:33;25.50;99.90
38090;DHT22;23904;52.322;10.232;2023-06-26T11:47:59;26.30;99.90
38090;DHT22;23904;52.322;10.232;2023-06-26T11:50:26;26.30;99.90
38090;DHT22;23904;52.322;10.232;2023-06-26T11:52:53;26.30;99.90
38090;DHT22;23904;52.322;10.232;2023-06-26T11:55:21;25.80;99.90
38090;DHT22;23904;52.322;10.232;2023-06-26T11:57:52;25.50;99.90
38090;DHT22;23904;52.322;10.232;2023-06-26T12:00:18;25.50;99.90
38090;DHT22;23904;52.322;10.232;2023-06-26T12:02:45;25.40;99.90
38090;DHT22;23904;52.322;10.232;2023-06-26T12:05:16;25.20;99.90
38090;DHT22;23904;52.322;10.232;2023-06-26T12:07:45;25.00;99.90
38090;DHT22;23904;52.322;10.232;2023-06-26T12:10:13;25.00;99.90
38090;DHT22;23904;52.322;10.232;2023-06-26T12:12:40;24.80;99.90
38090;DHT22;23904;52.322;10.232;2023-06-26T12:15:07;24.70;99.90
38090;DHT22;23904;52.322;10.232;2023-06-26T12:17:33;24.80;99.90
38090;DHT22;23904;52.322;10.232;2023-06-26T12:19:59;24.80;99.90
38090;DHT22;23904;52.322;10.232;2023-06-26T12:22:33;24.80;99.90
38090;DHT22;23904;52.322;10.232;2023-06-26T12:24:59;24.80;99.90
38090;DHT22;23904;52.322;10.232;2023-06-26T12:27:25;24.70;99.90
38090;DHT22;23904;52.322;10.232;2023-06-26T12:29:52;24.80;99.90
38090;DHT22;23904;52.322;10.232;2023-06-26T12:32:19;25.20;99.90
38090;DHT22;23904;52.322;10.232;2023-06-26T12:34:48;26.20;99.90
38090;DHT22;23904;52.322;10.232;2023-06-26T12:37:15;27.70;99.90
38090;DHT22;23904;52.322;10.232;2023-06-26T12:39:50;27.80;99.20
38090;DHT22;23904;52.322;10.232;2023-06-26T12:42:19;27.40;99.70
38090;DHT22;23904;52.322;10.232;2023-06-26T12:44:45;26.80;99.90
38090;DHT22;23904;52.322;10.232;2023-06-26T12:47:12;26.30;99.90
38090;DHT22;23904;52.322;10.232;2023-06-26T12:49:41;25.80;99.90
38090;DHT22;23904;52.322;10.232;2023-06-26T12:52:10;25.40;99.90
38090;DHT22;23904;52.322;10.232;2023-06-26T12:54:38;25.20;99.90
38090;DHT22;23904;52.322;10.232;2023-06-26T12:57:05;25.20;99.90
38090;DHT22;23904;52.322;10.232;2023-06-26T12:59:31;25.70;99.90
38090;DHT22;23904;52.322;10.232;2023-06-26T13:01:58;26.20;99.90
38090;DHT22;23904;52.322;10.232;2023-06-26T13:04:24;26.50;99.90
38090;DHT22;23904;52.322;10.232;2023-06-26T13:06:50;26.80;99.60
38090;DHT22;23904;52.322;10.232;2023-06-26T13:09:17;27.10;98.60
38090;DHT22;23904;52.322;10.232;2023-06-26T13:11:43;27.00;97.70
38090;DHT22;23904;52.322;10.232;2023-06-26T13:14:09;27.10;97.50
38090;DHT22;23904;52.322;10.232;2023-06-26T13:16:34;27.50;97.50
38090;DHT22;23904;52.322;10.232;2023-06-26T13:19:00;27.40;96.50
38090;DHT22;23904;52.322;10.232;2023-06-26T13:21:27;27.30;96.90
38090;DHT22;23904;52.322;10.232;2023-06-26T13:23:53;27.30;97.10
38090;DHT22;23904;52.322;10.232;2023-06-26T13:26:19;27.00;97.40
38090;DHT22;23904;52.322;10.232;2023-06-26T13:28:47;26.90;97.20
38090;DHT22;23904;52.322;10.232;2023-06-26T13:31:13;26.80;97.20
38090;DHT22;23904;52.322;10.232;2023-06-26T13:33:39;27.10;97.10
38090;DHT22;23904;52.322;10.232;2023-06-26T13:36:05;26.90;96.60
38090;DHT22;23904;52.322;10.232;2023-06-26T13:38:33;26.70;96.70
38090;DHT22;23904;52.322;10.232;2023-06-26T13:40:59;26.40;96.60
38090;DHT22;23904;52.322;10.232;2023-06-26T13:43:29;26.10;96.90
38090;DHT22;23904;52.322;10.232;2023-06-26T13:45:56;26.10;97.20
38090;DHT22;23904;52.322;10.232;2023-06-26T13:48:22;26.10;95.60
38090;DHT22;23904;52.322;10.232;2023-06-26T13:50:50;26.30;96.40
38090;DHT22;23904;52.322;10.232;2023-06-26T13:53:16;26.50;96.50
38090;DHT22;23904;52.322;10.232;2023-06-26T13:55:41;26.50;96.90
38090;DHT22;23904;52.322;10.232;2023-06-26T13:58:08;26.30;95.90
38090;DHT22;23904;52.322;10.232;2023-06-26T14:00:35;26.10;95.40
38090;DHT22;23904;52.322;10.232;2023-06-26T14:03:01;25.80;95.00
38090;DHT22;23904;52.322;10.232;2023-06-26T14:05:29;25.70;95.40
38090;DHT22;23904;52.322;10.232;2023-06-26T14:07:55;25.70;95.60
38090;DHT22;23904;52.322;10.232;2023-06-26T14:10:21;25.70;94.70
38090;DHT22;23904;52.322;10.232;2023-06-26T14:12:48;25.70;94.40
38090;DHT22;23904;52.322;10.232;2023-06-26T14:15:14;25.70;94.10
38090;DHT22;23904;52.322;10.232;2023-06-26T14:17:39;25.80;94.20
38090;DHT22;23904;52.322;10.232;2023-06-26T14:20:06;26.00;94.10
38090;DHT22;23904;52.322;10.232;2023-06-26T14:22:36;26.10;93.40
38090;DHT22;23904;52.322;10.232;2023-06-26T14:25:02;25.90;92.90
38090;DHT22;23904;52.322;10.232;2023-06-26T14:27:28;25.90;91.00
38090;DHT22;23904;52.322;10.232;2023-06-26T14:29:54;25.90;91.60
38090;DHT22;23904;52.322;10.232;2023-06-26T14:32:19;25.90;91.50
38090;DHT22;23904;52.322;10.232;2023-06-26T14:34:45;26.10;93.00
38090;DHT22;23904;52.322;10.232;2023-06-26T14:37:10;26.40;93.50
38090;DHT22;23904;52.322;10.232;2023-06-26T14:39:36;26.50;93.80
38090;DHT22;23904;52.322;10.232;2023-06-26T14:42:04;26.60;94.10
38090;DHT22;23904;52.322;10.232;2023-06-26T14:44:30;26.60;94.70
38090;DHT22;23904;52.322;10.232;2023-06-26T14:46:56;26.80;94.20
38090;DHT22;23904;52.322;10.232;2023-06-26T14:49:21;26.90;93.40
38090;DHT22;23904;52.322;10.232;2023-06-26T14:51:47;26.70;93.80
38090;DHT22;23904;52.322;10.232;2023-06-26T14:54:13;26.50;93.90
38090;DHT22;23904;52.322;10.232;2023-06-26T14:56:39;26.50;94.00
38090;DHT22;23904;52.322;10.232;2023-06-26T14:59:04;26.40;94.00
38090;DHT22;23904;52.322;10.232;2023-06-26T15:01:33;26.10;94.50
38090;DHT22;23904;52.322;10.232;2023-06-26T15:03:58;26.20;94.20
38090;DHT22;23904;52.322;10.232;2023-06-26T15:06:24;26.10;94.10
38090;DHT22;23904;52.322;10.232;2023-06-26T15:08:49;26.20;93.90
38090;DHT22;23904;52.322;10.232;2023-06-26T15:11:15;26.40;93.80
38090;DHT22;23904;52.322;10.232;2023-06-26T15:13:41;26.50;92.70
38090;DHT22;23904;52.322;10.232;2023-06-26T15:16:06;26.30;92.00
38090;DHT22;23904;52.322;10.232;2023-06-26T15:18:32;26.00;91.80
38090;DHT22;23904;52.322;10.232;2023-06-26T15:20:57;25.90;91.70
38090;DHT22;23904;52.322;10.232;2023-06-26T15:23:23;25.70;91.50
38090;DHT22;23904;52.322;10.232;2023-06-26T15:25:48;25.60;91.40